createdAt,value
2019-03-16T00:01:35.797Z,0.20
2019-03-16T00:04:04.053Z,0.20
2019-03-16T00:06:32.277Z,0.28
2019-03-16T00:09:00.827Z,0.15
2019-03-16T00:11:29.040Z,0.40
2019-03-16T00:13:57.273Z,0.20
2019-03-16T00:16:25.492Z,0.47
2019-03-16T00:18:53.728Z,0.30
2019-03-16T00:21:21.948Z,0.20
2019-03-16T00:23:50.482Z,0.30
2019-03-16T00:26:18.701Z,0.30
2019-03-16T00:28:46.947Z,0.20
2019-03-16T00:31:15.160Z,0.30
2019-03-16T00:33:43.401Z,0.23
2019-03-16T00:36:11.616Z,0.30
2019-03-16T00:38:39.851Z,0.20
2019-03-16T00:41:08.083Z,0.17
2019-03-16T00:43:36.589Z,0.30
2019-03-16T00:46:04.808Z,0.30
2019-03-16T00:48:33.357Z,0.50
2019-03-16T00:51:01.829Z,0.10
2019-03-16T00:53:30.069Z,0.20
2019-03-16T00:55:58.293Z,0.35
2019-03-16T00:58:26.867Z,0.23
2019-03-16T01:00:55.089Z,0.40
2019-03-16T01:03:23.317Z,0.20
2019-03-16T01:05:51.541Z,0.30
2019-03-16T01:08:19.771Z,0.40
2019-03-16T01:10:47.995Z,0.40
2019-03-16T01:13:35.657Z,0.40
2019-03-16T01:16:03.973Z,0.33
2019-03-16T01:18:32.205Z,0.20
2019-03-16T01:21:00.420Z,0.28
2019-03-16T01:23:28.665Z,0.15
2019-03-16T01:25:56.889Z,0.20
2019-03-16T01:28:25.161Z,0.13
2019-03-16T01:30:53.384Z,0.30
2019-03-16T01:33:21.619Z,0.20
2019-03-16T01:35:49.836Z,0.20
2019-03-16T01:38:18.328Z,0.10
2019-03-16T01:40:46.551Z,0.20
2019-03-16T01:43:14.848Z,0.20
2019-03-16T01:45:43.078Z,0.25
2019-03-16T01:48:11.355Z,0.28
2019-03-16T01:50:39.921Z,0.35
2019-03-16T01:53:08.135Z,0.20
2019-03-16T01:55:36.373Z,0.17
2019-03-16T01:58:04.588Z,0.20
2019-03-16T02:00:33.124Z,0.15
2019-03-16T02:03:01.345Z,0.10
2019-03-16T02:05:29.578Z,0.20
2019-03-16T02:07:57.876Z,0.42
2019-03-16T02:10:26.284Z,0.30
2019-03-16T02:12:54.501Z,0.20
2019-03-16T02:15:22.988Z,0.20
2019-03-16T02:17:51.213Z,0.37
2019-03-16T02:20:19.446Z,0.30
2019-03-16T02:22:47.673Z,0.30
2019-03-16T02:25:15.909Z,0.20
2019-03-16T02:27:44.128Z,0.30
2019-03-16T02:30:12.648Z,0.30
2019-03-16T02:32:40.936Z,0.20
2019-03-16T02:35:09.231Z,0.45
2019-03-16T02:37:37.464Z,0.30
2019-03-16T02:40:08.465Z,0.30
2019-03-16T02:42:36.693Z,0.40
2019-03-16T02:45:07.274Z,0.30
2019-03-16T02:47:35.489Z,0.30
2019-03-16T02:50:05.962Z,0.37
2019-03-16T02:52:34.197Z,0.23
2019-03-16T02:55:02.416Z,0.20
2019-03-16T02:57:30.633Z,0.40
2019-03-16T02:59:58.864Z,0.30
2019-03-16T03:02:27.092Z,0.40
2019-03-16T03:04:55.594Z,0.30
2019-03-16T03:07:23.824Z,0.40
2019-03-16T03:09:52.037Z,0.25
2019-03-16T03:12:20.266Z,0.30
2019-03-16T03:14:48.804Z,0.40
2019-03-16T03:17:17.024Z,0.20
2019-03-16T03:19:45.549Z,0.40
2019-03-16T03:22:13.773Z,0.20
2019-03-16T03:24:44.229Z,0.30
2019-03-16T03:27:11.953Z,0.30
2019-03-16T03:29:40.185Z,0.35
2019-03-16T03:32:08.410Z,0.20
2019-03-16T03:34:36.654Z,0.20
2019-03-16T03:37:04.870Z,0.30
2019-03-16T03:39:33.101Z,0.40
2019-03-16T03:42:01.504Z,0.30
2019-03-16T03:44:29.733Z,0.40
2019-03-16T03:46:58.229Z,0.20
2019-03-16T03:49:26.708Z,0.53
2019-03-16T03:51:54.929Z,0.40
2019-03-16T03:54:23.155Z,0.37
2019-03-16T03:56:51.394Z,0.45
2019-03-16T03:59:19.600Z,0.35
2019-03-16T04:01:47.841Z,0.30
2019-03-16T04:04:16.309Z,0.30
2019-03-16T04:06:44.671Z,0.50
2019-03-16T04:09:12.903Z,0.30
2019-03-16T04:11:41.138Z,0.50
2019-03-16T04:14:09.413Z,0.42
2019-03-16T04:16:37.638Z,0.40
2019-03-16T04:19:05.869Z,0.30
2019-03-16T04:21:34.093Z,0.30
2019-03-16T04:24:02.324Z,0.40
2019-03-16T04:26:30.545Z,0.37
2019-03-16T04:28:58.761Z,0.40
2019-03-16T04:31:27.002Z,0.60
2019-03-16T04:33:55.220Z,0.37
2019-03-16T04:36:23.461Z,0.78
2019-03-16T04:38:51.672Z,0.40
2019-03-16T04:41:19.905Z,0.40
2019-03-16T04:43:48.124Z,0.57
2019-03-16T04:46:16.361Z,0.37
2019-03-16T04:48:44.666Z,0.50
2019-03-16T04:51:12.989Z,0.60
2019-03-16T04:53:41.218Z,0.60
2019-03-16T04:56:09.457Z,0.57
2019-03-16T04:58:37.674Z,0.88
2019-03-16T05:01:05.901Z,0.50
2019-03-16T05:03:34.121Z,0.40
2019-03-16T05:06:02.665Z,0.60
2019-03-16T05:08:30.884Z,0.55
2019-03-16T05:10:59.168Z,0.40
2019-03-16T05:13:27.664Z,0.80
2019-03-16T05:15:55.913Z,0.40
2019-03-16T05:18:24.168Z,0.47
2019-03-16T05:20:52.400Z,0.50
2019-03-16T05:23:20.620Z,0.53
2019-03-16T05:25:48.852Z,0.50
2019-03-16T05:28:17.076Z,0.55
2019-03-16T05:30:45.314Z,0.50
2019-03-16T05:33:13.537Z,0.50
2019-03-16T05:35:41.777Z,0.88
2019-03-16T05:38:09.997Z,0.50
2019-03-16T05:40:38.296Z,0.50
2019-03-16T05:43:06.529Z,0.57
2019-03-16T05:45:35.090Z,0.68
2019-03-16T05:48:03.313Z,0.57
2019-03-16T05:50:31.545Z,0.70
2019-03-16T05:52:59.775Z,0.55
2019-03-16T05:55:28.009Z,0.35
2019-03-16T05:57:56.283Z,0.60
2019-03-16T06:00:24.788Z,0.60
2019-03-16T06:02:53.021Z,0.57
2019-03-16T06:05:21.297Z,0.90
2019-03-16T06:07:49.613Z,0.50
2019-03-16T06:10:18.203Z,0.70
2019-03-16T06:12:50.678Z,0.95
2019-03-16T06:15:18.964Z,0.80
2019-03-16T06:17:47.617Z,0.80
2019-03-16T06:20:16.188Z,0.70
2019-03-16T06:22:44.662Z,0.60
2019-03-16T06:25:12.890Z,0.90
2019-03-16T06:27:41.120Z,1.02
2019-03-16T06:30:14.489Z,2.15
2019-03-16T06:32:42.768Z,1.37
2019-03-16T06:35:23.844Z,0.80
2019-03-16T06:37:40.953Z,0.78
2019-03-16T06:40:10.613Z,0.95
2019-03-16T06:42:38.855Z,0.55
2019-03-16T06:45:09.008Z,0.70
2019-03-16T06:47:37.236Z,0.77
2019-03-16T06:50:09.000Z,0.95
2019-03-16T06:52:37.235Z,0.80
2019-03-16T06:55:06.432Z,0.70
2019-03-16T06:57:34.714Z,0.80
2019-03-16T07:00:03.897Z,0.93
2019-03-16T07:02:32.128Z,0.80
2019-03-16T07:05:00.483Z,0.90
2019-03-16T07:07:28.864Z,0.78
2019-03-16T07:09:57.085Z,0.78
2019-03-16T07:12:25.617Z,0.90
2019-03-16T07:14:53.853Z,0.93
2019-03-16T07:17:22.086Z,0.80
2019-03-16T07:19:50.313Z,0.88
2019-03-16T07:22:18.870Z,0.78
2019-03-16T07:24:47.110Z,0.98
2019-03-16T07:27:25.706Z,0.72
2019-03-16T07:29:45.293Z,1.10
2019-03-16T07:32:13.525Z,0.88
2019-03-16T07:34:42.076Z,0.90
2019-03-16T07:37:10.567Z,0.90
2019-03-16T07:39:38.864Z,1.10
2019-03-16T07:42:07.416Z,0.98
2019-03-16T07:44:35.648Z,0.90
2019-03-16T07:47:03.913Z,0.90
2019-03-16T07:49:33.501Z,1.00
2019-03-16T07:52:02.083Z,0.80
2019-03-16T07:54:31.350Z,1.12
2019-03-16T07:56:59.739Z,0.70
2019-03-16T07:59:27.976Z,1.10
2019-03-16T08:01:56.192Z,1.10
2019-03-16T08:04:24.781Z,1.10
2019-03-16T08:06:53.254Z,0.85
2019-03-16T08:09:21.506Z,0.90
2019-03-16T08:11:50.325Z,1.00
2019-03-16T08:14:18.705Z,0.90
2019-03-16T08:16:46.926Z,1.20
2019-03-16T08:19:15.464Z,1.10
2019-03-16T08:21:43.787Z,1.00
2019-03-16T08:24:11.990Z,0.80
2019-03-16T08:26:40.214Z,1.35
2019-03-16T08:29:08.444Z,0.88
2019-03-16T08:31:36.665Z,1.60
2019-03-16T08:34:04.887Z,1.20
2019-03-16T08:36:33.220Z,1.00
2019-03-16T08:39:01.443Z,1.00
2019-03-16T08:41:29.944Z,1.02
2019-03-16T08:44:17.609Z,1.30
2019-03-16T08:46:45.828Z,1.17
2019-03-16T08:49:14.053Z,1.00
2019-03-16T08:51:42.284Z,1.07
2019-03-16T08:54:10.500Z,0.98
2019-03-16T08:56:39.065Z,0.88
2019-03-16T08:59:07.294Z,1.10
2019-03-16T09:01:35.521Z,1.20
2019-03-16T09:04:03.740Z,1.17
2019-03-16T09:06:32.269Z,1.95
2019-03-16T09:09:00.489Z,1.75
2019-03-16T09:11:28.728Z,1.15
2019-03-16T09:13:56.948Z,1.30
2019-03-16T09:16:25.183Z,1.12
2019-03-16T09:18:53.404Z,1.52
2019-03-16T09:21:21.646Z,1.25
2019-03-16T09:23:49.916Z,1.25
2019-03-16T09:26:18.156Z,1.22
2019-03-16T09:28:46.372Z,1.10
2019-03-16T09:31:14.605Z,1.00
2019-03-16T09:33:42.825Z,1.20
2019-03-16T09:36:11.109Z,0.98
2019-03-16T09:38:39.328Z,1.07
2019-03-16T09:41:07.566Z,1.10
2019-03-16T09:43:35.785Z,1.12
2019-03-16T09:46:04.020Z,1.25
2019-03-16T09:48:32.240Z,0.90
2019-03-16T09:51:00.472Z,0.95
2019-03-16T09:53:28.701Z,1.00
2019-03-16T09:56:16.361Z,1.22
2019-03-16T09:58:44.912Z,1.05
2019-03-16T10:01:15.347Z,1.27
2019-03-16T10:03:43.092Z,0.98
2019-03-16T10:06:11.329Z,1.17
2019-03-16T10:08:39.557Z,0.90
2019-03-16T10:11:07.789Z,0.98
2019-03-16T10:13:36.017Z,0.90
2019-03-16T10:16:04.256Z,1.47
2019-03-16T10:18:32.472Z,0.98
2019-03-16T10:21:00.704Z,1.05
2019-03-16T10:23:28.933Z,0.80
2019-03-16T10:25:57.164Z,1.12
2019-03-16T10:28:25.384Z,0.85
2019-03-16T10:30:53.621Z,1.10
2019-03-16T10:33:21.845Z,1.12
2019-03-16T10:35:50.080Z,0.98
2019-03-16T10:38:18.309Z,2.75
2019-03-16T10:40:46.541Z,0.90
2019-03-16T10:43:14.756Z,0.62
2019-03-16T10:45:42.992Z,1.27
2019-03-16T10:48:11.208Z,1.00
2019-03-16T10:50:39.442Z,0.78
2019-03-16T10:53:07.667Z,0.85
2019-03-16T10:55:35.884Z,0.75
2019-03-16T10:58:04.125Z,0.68
2019-03-16T11:00:32.645Z,0.70
2019-03-16T11:03:00.885Z,1.07
2019-03-16T11:05:29.118Z,0.60
2019-03-16T11:07:57.349Z,0.68
2019-03-16T11:10:25.852Z,0.75
2019-03-16T11:12:54.089Z,0.57
2019-03-16T11:15:22.311Z,1.00
2019-03-16T11:17:50.539Z,0.80
2019-03-16T11:20:19.508Z,0.70
2019-03-16T11:22:47.740Z,1.22
2019-03-16T11:25:15.957Z,0.80
2019-03-16T11:27:44.509Z,1.20
2019-03-16T11:30:14.632Z,0.53
2019-03-16T11:32:42.863Z,0.80
2019-03-16T11:35:11.265Z,0.70
2019-03-16T11:37:39.487Z,0.60
2019-03-16T11:40:15.217Z,0.70
2019-03-16T11:42:43.448Z,0.98
2019-03-16T11:45:12.104Z,0.75
2019-03-16T11:47:40.337Z,0.60
2019-03-16T11:50:10.563Z,0.50
2019-03-16T11:52:38.804Z,0.78
2019-03-16T11:55:09.191Z,1.40
2019-03-16T11:57:37.424Z,1.15
2019-03-16T12:00:11.360Z,0.57
2019-03-16T12:02:39.597Z,0.70
2019-03-16T12:05:11.380Z,0.75
2019-03-16T12:07:39.616Z,1.90
2019-03-16T12:10:12.936Z,0.80
2019-03-16T12:12:41.183Z,0.62
2019-03-16T12:15:11.046Z,0.30
2019-03-16T12:17:39.285Z,0.50
2019-03-16T12:20:12.660Z,0.60
2019-03-16T12:22:40.900Z,0.98
2019-03-16T12:25:09.121Z,0.70
2019-03-16T12:27:37.355Z,0.57
2019-03-16T12:30:10.522Z,0.60
2019-03-16T12:32:38.755Z,0.50
2019-03-16T12:35:07.721Z,0.47
2019-03-16T12:37:35.953Z,0.45
2019-03-16T12:40:07.120Z,0.70
2019-03-16T12:42:35.408Z,0.50
2019-03-16T12:45:05.729Z,0.55
2019-03-16T12:47:33.968Z,0.68
2019-03-16T12:50:02.582Z,0.50
2019-03-16T12:52:30.815Z,0.60
2019-03-16T12:54:59.044Z,0.40
2019-03-16T12:57:27.269Z,0.50
2019-03-16T12:59:55.564Z,0.53
2019-03-16T13:02:24.064Z,0.50
2019-03-16T13:04:52.357Z,0.42
2019-03-16T13:07:20.585Z,0.40
2019-03-16T13:09:48.806Z,0.40
2019-03-16T13:12:17.039Z,0.50
2019-03-16T13:14:45.263Z,0.50
2019-03-16T13:17:13.495Z,1.10
2019-03-16T13:19:41.810Z,1.17
2019-03-16T13:22:10.047Z,0.75
2019-03-16T13:24:38.280Z,0.57
2019-03-16T13:27:06.496Z,2.40
2019-03-16T13:29:34.729Z,1.10
2019-03-16T13:32:02.952Z,0.70
2019-03-16T13:34:31.190Z,1.32
2019-03-16T13:36:59.417Z,0.70
2019-03-16T13:39:27.648Z,0.50
2019-03-16T13:41:55.942Z,1.32
2019-03-16T13:44:24.174Z,0.90
2019-03-16T13:46:52.392Z,0.88
2019-03-16T13:49:20.705Z,0.70
2019-03-16T13:51:49.337Z,0.50
2019-03-16T13:54:17.944Z,0.65
2019-03-16T13:56:46.168Z,1.15
2019-03-16T13:59:14.406Z,0.80
2019-03-16T14:01:42.996Z,1.00
2019-03-16T14:04:11.408Z,0.70
2019-03-16T14:06:39.629Z,1.10
2019-03-16T14:09:08.136Z,1.40
2019-03-16T14:11:36.356Z,0.72
2019-03-16T14:14:04.840Z,0.82
2019-03-16T14:16:33.060Z,0.70
2019-03-16T14:19:01.670Z,0.95
2019-03-16T14:21:29.884Z,1.50
2019-03-16T14:23:58.116Z,1.45
2019-03-16T14:26:26.332Z,4.47
2019-03-16T14:28:54.568Z,2.50
2019-03-16T14:31:22.787Z,1.00
2019-03-16T14:33:51.084Z,0.80
2019-03-16T14:36:19.360Z,0.80
2019-03-16T14:38:47.716Z,0.82
2019-03-16T14:41:16.189Z,0.80
2019-03-16T14:43:44.435Z,0.70
2019-03-16T14:46:12.726Z,0.70
2019-03-16T14:48:40.960Z,0.60
2019-03-16T14:51:09.189Z,0.62
2019-03-16T14:53:37.417Z,0.50
2019-03-16T14:56:05.637Z,0.70
2019-03-16T14:58:33.898Z,0.80
2019-03-16T15:01:02.092Z,0.45
2019-03-16T15:03:30.325Z,0.70
2019-03-16T15:05:58.601Z,0.55
2019-03-16T15:08:26.832Z,0.70
2019-03-16T15:10:55.060Z,0.55
2019-03-16T15:13:23.276Z,0.60
2019-03-16T15:15:51.504Z,0.70
2019-03-16T15:18:19.727Z,0.50
2019-03-16T15:20:47.961Z,0.60
2019-03-16T15:23:16.190Z,1.05
2019-03-16T15:25:44.428Z,1.10
2019-03-16T15:28:12.649Z,0.62
2019-03-16T15:30:50.243Z,0.88
2019-03-16T15:33:11.147Z,0.70
2019-03-16T15:35:39.373Z,0.70
2019-03-16T15:38:07.593Z,0.62
2019-03-16T15:40:38.300Z,0.72
2019-03-16T15:43:05.785Z,0.60
2019-03-16T15:45:34.021Z,2.20
2019-03-16T15:48:02.248Z,6.97
2019-03-16T15:50:30.485Z,5.05
2019-03-16T15:52:58.704Z,2.25
2019-03-16T15:55:26.940Z,1.87
2019-03-16T15:58:07.332Z,2.30
2019-03-16T16:00:25.107Z,2.00
2019-03-16T16:02:53.347Z,1.50
2019-03-16T16:05:21.585Z,1.52
2019-03-16T16:07:49.849Z,1.30
2019-03-16T16:10:19.048Z,1.90
2019-03-16T16:12:47.356Z,0.80
2019-03-16T16:15:15.593Z,1.60
2019-03-16T16:17:44.101Z,0.50
2019-03-16T16:20:13.569Z,0.78
2019-03-16T16:22:41.789Z,0.50
2019-03-16T16:25:13.461Z,0.60
2019-03-16T16:27:41.682Z,0.78
2019-03-16T16:30:16.716Z,1.05
2019-03-16T16:32:44.947Z,0.70
2019-03-16T16:35:16.625Z,0.70
2019-03-16T16:37:44.849Z,0.70
2019-03-16T16:40:14.420Z,0.70
2019-03-16T16:42:42.640Z,0.60
2019-03-16T16:45:12.317Z,0.78
2019-03-16T16:47:40.536Z,0.72
2019-03-16T16:50:11.876Z,0.80
2019-03-16T16:52:40.092Z,1.30
2019-03-16T16:55:08.396Z,1.15
2019-03-16T16:57:36.626Z,0.95
2019-03-16T17:00:08.115Z,1.92
2019-03-16T17:02:36.616Z,0.90
2019-03-16T17:05:06.004Z,0.70
2019-03-16T17:07:34.220Z,0.80
2019-03-16T17:10:03.492Z,0.80
2019-03-16T17:12:31.717Z,0.75
2019-03-16T17:15:00.378Z,1.20
2019-03-16T17:17:35.040Z,0.98
2019-03-16T17:19:58.689Z,0.95
2019-03-16T17:22:26.916Z,0.93
2019-03-16T17:24:55.141Z,0.75
2019-03-16T17:27:23.373Z,0.75
2019-03-16T17:29:51.857Z,0.93
2019-03-16T17:32:20.095Z,0.80
2019-03-16T17:34:48.617Z,0.80
2019-03-16T17:37:16.848Z,0.82
2019-03-16T17:39:45.087Z,1.05
2019-03-16T17:42:13.317Z,0.72
2019-03-16T17:44:41.540Z,1.00
2019-03-16T17:47:09.770Z,0.80
2019-03-16T17:49:37.993Z,0.80
2019-03-16T17:52:06.226Z,0.93
2019-03-16T17:54:34.451Z,1.02
2019-03-16T17:57:02.680Z,0.90
2019-03-16T17:59:30.906Z,0.75
2019-03-16T18:01:59.127Z,0.88
2019-03-16T18:04:27.938Z,1.10
2019-03-16T18:06:56.372Z,1.20
2019-03-16T18:09:24.626Z,0.93
2019-03-16T18:11:53.033Z,1.37
2019-03-16T18:14:21.253Z,1.17
2019-03-16T18:16:49.484Z,0.93
2019-03-16T18:19:17.813Z,1.20
2019-03-16T18:21:46.108Z,5.12
2019-03-16T18:24:14.348Z,8.48
2019-03-16T18:26:42.565Z,2.62
2019-03-16T18:29:10.796Z,1.40
2019-03-16T18:31:39.013Z,1.20
2019-03-16T18:34:07.244Z,1.10
2019-03-16T18:36:35.464Z,1.85
2019-03-16T18:39:05.141Z,1.10
2019-03-16T18:41:33.361Z,1.20
2019-03-16T18:44:01.597Z,1.95
2019-03-16T18:46:29.830Z,1.40
2019-03-16T18:48:58.064Z,2.05
2019-03-16T18:51:26.285Z,2.00
2019-03-16T18:53:54.520Z,1.40
2019-03-16T18:56:22.737Z,1.20
2019-03-16T18:58:50.969Z,0.95
2019-03-16T19:01:19.203Z,1.10
2019-03-16T19:03:47.424Z,1.37
2019-03-16T19:06:15.965Z,1.20
2019-03-16T19:08:44.189Z,1.20
2019-03-16T19:11:12.423Z,1.20
2019-03-16T19:13:40.724Z,1.10
2019-03-16T19:16:08.960Z,1.20
2019-03-16T19:18:37.312Z,1.27
2019-03-16T19:21:05.548Z,1.05
2019-03-16T19:23:33.764Z,1.10
2019-03-16T19:26:01.997Z,1.05
2019-03-16T19:28:30.217Z,1.15
2019-03-16T19:30:58.449Z,1.30
2019-03-16T19:33:26.676Z,1.10
2019-03-16T19:35:55.185Z,1.10
2019-03-16T19:38:23.404Z,1.10
2019-03-16T19:40:51.645Z,1.22
2019-03-16T19:43:19.859Z,1.20
2019-03-16T19:45:48.093Z,1.50
2019-03-16T19:48:16.316Z,1.30
2019-03-16T19:50:44.842Z,1.50
2019-03-16T19:53:13.062Z,1.15
2019-03-16T19:55:41.293Z,1.50
2019-03-16T19:58:09.599Z,1.30
2019-03-16T20:00:37.924Z,1.25
2019-03-16T20:03:06.167Z,1.50
2019-03-16T20:05:34.459Z,1.30
2019-03-16T20:08:02.676Z,1.22
2019-03-16T20:10:30.984Z,1.27
2019-03-16T20:12:59.308Z,1.10
2019-03-16T20:15:27.541Z,1.30
2019-03-16T20:17:55.765Z,1.30
2019-03-16T20:20:24.030Z,1.17
2019-03-16T20:22:52.291Z,1.15
2019-03-16T20:25:20.529Z,1.52
2019-03-16T20:27:48.744Z,1.35
2019-03-16T20:30:25.964Z,1.75
2019-03-16T20:32:50.333Z,1.45
2019-03-16T20:35:17.164Z,1.60
2019-03-16T20:37:45.382Z,3.05
2019-03-16T20:40:16.902Z,2.98
2019-03-16T20:42:45.116Z,2.87
2019-03-16T20:45:13.737Z,4.45
2019-03-16T20:47:42.086Z,3.02
2019-03-16T20:50:18.400Z,2.10
2019-03-16T20:52:47.082Z,1.22
2019-03-16T20:55:15.401Z,1.10
2019-03-16T20:57:43.980Z,1.25
2019-03-16T21:00:13.632Z,1.30
2019-03-16T21:02:41.870Z,1.50
2019-03-16T21:05:10.533Z,1.50
2019-03-16T21:07:38.756Z,1.40
2019-03-16T21:10:09.260Z,1.40
2019-03-16T21:12:37.497Z,1.72
2019-03-16T21:15:14.675Z,3.60
2019-03-16T21:17:42.905Z,4.12
2019-03-16T21:20:15.771Z,7.05
2019-03-16T21:22:43.995Z,5.10
2019-03-16T21:25:13.566Z,2.52
2019-03-16T21:27:41.796Z,1.25
2019-03-16T21:30:22.907Z,1.20
2019-03-16T21:32:51.144Z,1.57
2019-03-16T21:35:19.365Z,1.60
2019-03-16T21:37:47.697Z,1.27
2019-03-16T21:40:16.399Z,1.25
2019-03-16T21:42:44.744Z,1.10
2019-03-16T21:45:13.622Z,1.37
2019-03-16T21:47:42.012Z,1.12
2019-03-16T21:50:12.664Z,0.98
2019-03-16T21:52:44.047Z,1.10
2019-03-16T21:55:12.056Z,1.05
2019-03-16T21:57:40.397Z,1.32
2019-03-16T22:00:13.659Z,1.50
2019-03-16T22:02:42.011Z,1.50
2019-03-16T22:05:10.813Z,1.20
2019-03-16T22:07:39.619Z,1.25
2019-03-16T22:10:12.476Z,1.40
2019-03-16T22:12:40.940Z,1.20
2019-03-16T22:15:15.979Z,1.27
2019-03-16T22:17:44.375Z,1.20
2019-03-16T22:20:15.959Z,1.07
2019-03-16T22:22:44.256Z,0.95
2019-03-16T22:25:12.689Z,1.12
2019-03-16T22:27:41.043Z,1.10
2019-03-16T22:30:14.003Z,1.00
2019-03-16T22:32:42.402Z,1.10
2019-03-16T22:35:10.740Z,1.00
2019-03-16T22:37:39.149Z,1.12
2019-03-16T22:40:12.524Z,1.10
2019-03-16T22:42:41.275Z,0.90
2019-03-16T22:45:11.296Z,1.00
2019-03-16T22:47:39.979Z,1.20
2019-03-16T22:50:13.020Z,0.90
2019-03-16T22:52:41.416Z,1.00
2019-03-16T22:55:10.154Z,0.80
2019-03-16T22:57:40.910Z,0.93
2019-03-16T23:00:14.293Z,0.78
2019-03-16T23:02:42.939Z,1.10
2019-03-16T23:05:11.487Z,0.93
2019-03-16T23:07:40.113Z,0.90
2019-03-16T23:10:12.128Z,0.85
2019-03-16T23:12:40.754Z,0.80
2019-03-16T23:15:12.968Z,0.75
2019-03-16T23:17:41.079Z,0.80
2019-03-16T23:20:10.037Z,0.88
2019-03-16T23:22:38.390Z,0.72
2019-03-16T23:25:08.335Z,0.80
2019-03-16T23:27:36.688Z,0.90
2019-03-16T23:30:07.039Z,0.90
2019-03-16T23:32:35.691Z,0.70
2019-03-16T23:35:04.405Z,0.85
2019-03-16T23:37:32.749Z,0.90
2019-03-16T23:40:01.037Z,0.82
2019-03-16T23:42:29.605Z,0.80
2019-03-16T23:44:57.970Z,1.12
2019-03-16T23:47:26.377Z,0.65
2019-03-16T23:49:54.710Z,0.78
2019-03-16T23:52:23.063Z,0.80
2019-03-16T23:54:51.440Z,0.68
2019-03-16T23:57:19.779Z,0.80
2019-03-16T23:59:48.117Z,0.70
